Laurent Verva

Laurent Verva

Statistiques 2026

  • Courses courues : 42
  • Nb de victoires : -
  • Nb de places : 1
  • Écart gagnant : 143
  • Réussite à la gagne : -
  • Réussite à la place : 2%
Musique : 0a 8a 4a 6a 6a 0a 5a 5a Da 2a 9a 6a 5a Da 6a 0a 7a 4a
DateRangCatégorieAlloc.Dist.HippodromeChevalRed. KmSpé.
01/09/18 3 Trot 23 000€ 2 800m Vichy Altesse d'Ardennes 1'13"8 Attelé
01/09/18 1 Trot 21 000€ 2 800m Vichy Eros In Love 1'14"6 Attelé
02/09/18 6 Trot 13 000€ 2 625m Saint Omer Fidji Song 1'20"3 Attelé
02/09/18 0 Trot 14 000€ 2 650m Saint Omer Eden Pierji Attelé
02/09/18 4 Trot 13 000€ 2 625m Saint Omer Flashback Syga 1'21"2 Attelé
02/09/18 2 Trot 25 000€ 2 650m Saint Omer Au Temps Dubonheur 1'15"9 Attelé
02/09/18 D Trot 14 000€ 2 625m Saint Omer Epona des Neuzy Attelé
02/09/18 8 Trot 15 000€ 2 625m Saint Omer Dryade des Salines 1'20"2 Attelé
03/09/18 D Trot 25 000€ 2 900m Amiens Aristo de Chanjac Attelé
03/09/18 1 Trot 20 000€ 2 925m Amiens Diego du Houlet 1'16"5 Attelé
03/09/18 1 Trot 15 000€ 2 400m Amiens Ercule de Navary 1'16"7 Attelé
03/09/18 D Trot 15 000€ 2 400m Amiens Fire Bird Attelé
06/09/18 8 Trot 25 000€ 2 900m Amiens Bilingue d'Alci 1'16"0 Attelé
06/09/18 2 Trot 22 000€ 2 400m Amiens Dollar de l'Iton 1'15"1 Attelé
06/09/18 6 Trot 21 000€ 2 925m Amiens Elliot d'Alci 1'18"1 Attelé
06/09/18 7 Trot 21 000€ 2 925m Amiens Elisee du Pont 1'18"1 Attelé
06/09/18 8 Trot 21 000€ 2 400m Amiens Fabuleux de Corday 1'17"7 Attelé
09/09/18 D Trot 17 000€ 2 650m Laon Easy de Navary Attelé
09/09/18 D Trot 35 000€ 2 875m Laon Venus du Rosay Attelé
09/09/18 3 Trot 13 000€ 2 850m Laon Fayette Dream 1'20"6 Attelé
09/09/18 5 Trot 17 000€ 2 650m Laon Elokai 1'18"0 Attelé
10/09/18 9 Trot 15 000€ 2 700m Le Croise Laroche Felinara 1'19"6 Attelé
11/09/18 0 Trot 32 000€ 2 950m Toulouse Amio Josselyn Attelé lire

Un des animateurs, a été progressivement dominé depuis le bout de la ligne opposée.

11/09/18 1 Trot 17 000€ 2 975m Toulouse Eros In Love 1'16"6 Attelé lire

Vite en tête, détaché des autres, a gagné de toute une distance.

13/09/18 6 Trot 20 000€ 2 600m Reims Dollar de l'Iton 1'15"5 Attelé
13/09/18 6 Trot 20 000€ 2 600m Reims Elisee du Pont 1'16"4 Attelé
13/09/18 0 Trot 22 000€ 2 600m Reims Frivole d'Arbaz Attelé
14/09/18 3 Trot 20 000€ 2 700m Le Croise Laroche Diego du Houlet 1'15"8 Attelé
14/09/18 0 Trot 15 000€ 2 700m Le Croise Laroche Etoile Dubonheur Attelé
17/09/18 5 Trot 18 000€ 2 750m Cabourg Flamme Mencourt 1'17"1 Attelé
20/09/18 5 Trot 23 000€ 2 650m Lyon La Soie Altesse d'Ardennes 1'14"5 Attelé
22/09/18 4 Trot 25 000€ 2 850m Mauquenchy Cyrus d'Alci 1'15"2 Attelé
22/09/18 6 Trot 19 000€ 2 875m Mauquenchy Dauphine d'Alci 1'16"6 Attelé
23/09/18 1 Trot 12 000€ 2 625m Saint Omer Flashback Syga 1'24"5 Attelé
23/09/18 4 Trot 12 000€ 2 625m Saint Omer Fiston d'hertals 1'24"6 Attelé
23/09/18 6 Trot 12 000€ 2 625m Saint Omer Etoile d'Ocque 1'23"8 Attelé
23/09/18 2 Trot 12 000€ 2 625m Saint Omer Erythia 1'23"0 Attelé
23/09/18 3 Trot 12 000€ 2 625m Saint Omer Fleur du Ramierou 1'22"1 Attelé
23/09/18 2 Trot 12 000€ 2 625m Saint Omer Filae des Salines 1'23"7 Attelé
23/09/18 4 Trot 12 000€ 2 625m Saint Omer Excelebration 1'20"6 Attelé
23/09/18 7 Trot 12 000€ 2 625m Saint Omer Ezekiel Okina 1'21"9 Attelé
24/09/18 0 Trot 20 000€ 2 700m Le Croise Laroche Cannelle d'As Attelé
24/09/18 2 Trot 19 000€ 2 700m Le Croise Laroche Daisy de la Folie 1'16"7 Attelé
24/09/18 D Trot 20 000€ 2 825m Le Croise Laroche Etoile Dubonheur Attelé
24/09/18 0 Trot 20 000€ 2 850m Le Croise Laroche Elokai Attelé
27/09/18 2 Trot 20 000€ 2 950m Toulouse Eros In Love 1'16"4 Attelé
29/09/18 0 Trot 30 000€ 2 700m Le Croise Laroche Atout du Hainaut Attelé
29/09/18 2 Trot 20 000€ 2 700m Le Croise Laroche Divin de Bougy 1'15"1 Attelé
29/09/18 1 Trot 15 000€ 2 700m Le Croise Laroche Fire Bird 1'17"4 Attelé
30/09/18 2 Trot 15 000€ 2 000m La Capelle Geisha d'Arbaz 1'17"8 Attelé